This is the latest recevied weather packets stored in our database for station/object KX4O-13. If no packets are shown the sender has not sent any weather packets the latest 10 day(s).
| Time | Temp. | Humidity | Pressure | Rain* | Wind** | Luminosity | Snow |
|---|---|---|---|---|---|---|---|
| 1777575961 | 18.89° C | 44% | 1008.4 hPa | 0 mm | - | 204 W/m² | - |
| 1777575661 | 19.44° C | 45% | 1008.5 hPa | 0 mm | - | 979 W/m² | - |
| 1777575361 | 18.89° C | 42% | 1008.4 hPa | 0 mm | - | 221 W/m² | - |
| 1777575061 | 18.89° C | 42% | 1008.4 hPa | 0 mm | - | 211 W/m² | - |
| 1777574761 | 20° C | 45% | 1008.6 hPa | 0 mm | - | 967 W/m² | - |
| 1777574461 | 19.44° C | 43% | 1008.4 hPa | 0 mm | - | 867 W/m² | - |
| 1777574161 | 19.44° C | 42% | 1008.5 hPa | 0 mm | - | 867 W/m² | - |
| 1777573861 | 18.89° C | 44% | 1008.4 hPa | 0 mm | - | 921 W/m² | - |
| 1777573561 | 19.44° C | 45% | 1008.5 hPa | 0 mm | - | 1055 W/m² | - |
| 1777573261 | 19.44° C | 44% | 1008.5 hPa | 0 mm | - | 969 W/m² | - |
| 1777572961 | 19.44° C | 47% | 1008.6 hPa | 0 mm | - | 905 W/m² | - |
| 1777572661 | 20.56° C | 46% | 1008.6 hPa | 0 mm | - | 911 W/m² | - |
| 1777572361 | 20° C | 45% | 1008.6 hPa | 0 mm | - | 911 W/m² | - |
| 1777572061 | 20° C | 46% | 1008.7 hPa | 0 mm | - | 884 W/m² | - |
| 1777571761 | 19.44° C | 44% | 1008.7 hPa | 0 mm | - | 877 W/m² | - |
| 1777571461 | 19.44° C | 44% | 1008.5 hPa | 0 mm | - | 902 W/m² | - |
| 1777571161 | 19.44° C | 47% | 1008.7 hPa | 0 mm | - | 923 W/m² | - |
| 1777570861 | 18.89° C | 46% | 1008.7 hPa | 0 mm | - | 942 W/m² | - |
| 1777570561 | 17.78° C | 53% | 1008.9 hPa | 0 mm | - | 779 W/m² | - |
| 1777570261 | 17.78° C | 46% | 1008.8 hPa | 0 mm | - | 290 W/m² | - |
| 1777569961 | 18.33° C | 49% | 1008.7 hPa | 0 mm | - | 251 W/m² | - |
| 1777569661 | 17.78° C | 53% | 1008.7 hPa | 0 mm | - | 207 W/m² | - |
| 1777569361 | 18.33° C | 53% | 1008.8 hPa | 0 mm | - | 309 W/m² | - |
| 1777569061 | 17.78° C | 49% | 1008.9 hPa | 0 mm | - | 309 W/m² | - |
| 1777568761 | 18.89° C | 46% | 1008.9 hPa | 0 mm | - | 763 W/m² | - |
* Rain latest hour (hover to see other rain measurements)
** Current wind speed in m/s (hover to see current wind gust speed)